createdAt,value
2017-09-18T00:00:12.861Z,4.43
2017-09-18T00:02:40.315Z,5.53
2017-09-18T00:05:07.786Z,5.17
2017-09-18T00:07:35.247Z,5.00
2017-09-18T00:10:02.707Z,4.93
2017-09-18T00:12:30.187Z,4.50
2017-09-18T00:14:57.667Z,5.10
2017-09-18T00:17:25.123Z,4.50
2017-09-18T00:19:52.610Z,4.03
2017-09-18T00:22:20.066Z,4.20
2017-09-18T00:24:47.519Z,4.33
2017-09-18T00:27:15.000Z,3.70
2017-09-18T00:29:42.445Z,3.97
2017-09-18T00:32:09.895Z,3.87
2017-09-18T00:34:37.370Z,4.13
2017-09-18T00:37:04.831Z,4.80
2017-09-18T00:39:32.309Z,4.30
2017-09-18T00:41:59.804Z,4.30
2017-09-18T00:44:27.255Z,4.27
2017-09-18T00:46:54.712Z,3.77
2017-09-18T00:49:22.190Z,4.30
2017-09-18T00:51:49.643Z,4.10
2017-09-18T00:54:17.103Z,3.77
2017-09-18T00:56:44.958Z,4.03
2017-09-18T00:59:12.460Z,3.87
2017-09-18T01:01:39.926Z,3.93
2017-09-18T01:04:07.413Z,4.37
2017-09-18T01:06:34.870Z,4.10
2017-09-18T01:09:02.327Z,4.23
2017-09-18T01:11:29.813Z,4.57
2017-09-18T01:13:57.262Z,3.77
2017-09-18T01:16:24.739Z,4.43
2017-09-18T01:18:52.217Z,4.20
2017-09-18T01:21:19.674Z,4.47
2017-09-18T01:23:47.131Z,3.80
2017-09-18T01:26:14.602Z,4.10
2017-09-18T01:28:42.062Z,4.00
2017-09-18T01:31:09.551Z,4.40
2017-09-18T01:33:37.025Z,4.53
2017-09-18T01:36:04.483Z,4.20
2017-09-18T01:38:31.954Z,4.67
2017-09-18T01:40:59.399Z,4.73
2017-09-18T01:43:26.874Z,5.17
2017-09-18T01:45:54.326Z,5.10
2017-09-18T01:48:21.775Z,5.00
2017-09-18T01:50:49.266Z,5.30
2017-09-18T01:53:16.738Z,4.73
2017-09-18T01:55:44.186Z,5.27
2017-09-18T01:58:11.681Z,4.80
2017-09-18T02:00:39.134Z,5.00
2017-09-18T02:03:06.583Z,4.80
2017-09-18T02:05:34.061Z,4.90
2017-09-18T02:08:01.510Z,5.47
2017-09-18T02:10:28.970Z,5.47
2017-09-18T02:12:56.449Z,5.10
2017-09-18T02:15:23.899Z,4.83
2017-09-18T02:17:51.435Z,4.43
2017-09-18T02:20:18.919Z,4.60
2017-09-18T02:22:46.370Z,4.63
2017-09-18T02:25:13.822Z,4.13
2017-09-18T02:27:41.294Z,5.00
2017-09-18T02:30:08.739Z,4.90
2017-09-18T02:32:36.194Z,4.77
2017-09-18T02:35:03.706Z,5.27
2017-09-18T02:37:31.155Z,5.37
2017-09-18T02:39:58.611Z,5.40
2017-09-18T02:42:26.084Z,4.47
2017-09-18T02:44:53.550Z,4.40
2017-09-18T02:47:21.007Z,5.03
2017-09-18T02:49:48.483Z,5.13
2017-09-18T02:52:15.936Z,5.10
2017-09-18T02:54:43.397Z,4.20
2017-09-18T02:57:10.899Z,4.87
2017-09-18T02:59:38.360Z,4.20
2017-09-18T03:02:05.822Z,4.33
2017-09-18T03:04:33.294Z,4.50
2017-09-18T03:07:00.748Z,4.90
2017-09-18T03:09:28.202Z,4.40
2017-09-18T03:11:55.679Z,4.27
2017-09-18T03:14:23.134Z,4.30
2017-09-18T03:16:50.579Z,4.43
2017-09-18T03:19:18.050Z,4.00
2017-09-18T03:21:45.510Z,4.37
2017-09-18T03:24:12.962Z,5.00
2017-09-18T03:26:40.475Z,3.50
2017-09-18T03:29:07.931Z,4.57
2017-09-18T03:31:35.386Z,3.80
2017-09-18T03:34:02.863Z,4.47
2017-09-18T03:36:30.326Z,3.70
2017-09-18T03:38:57.769Z,4.40
2017-09-18T03:41:25.243Z,3.73
2017-09-18T03:43:52.698Z,4.57
2017-09-18T03:46:20.146Z,4.40
2017-09-18T03:48:47.619Z,3.90
2017-09-18T03:51:15.070Z,4.67
2017-09-18T03:53:42.517Z,4.70
2017-09-18T03:56:10.003Z,3.97
2017-09-18T03:58:37.450Z,4.17
2017-09-18T04:01:04.898Z,4.60
2017-09-18T04:03:32.372Z,4.33
2017-09-18T04:05:59.831Z,4.97
2017-09-18T04:08:27.287Z,4.33
2017-09-18T04:10:54.846Z,4.40
2017-09-18T04:13:22.342Z,5.83
2017-09-18T04:15:49.804Z,5.40
2017-09-18T04:18:17.278Z,4.23
2017-09-18T04:20:44.732Z,4.90
2017-09-18T04:23:12.178Z,4.43
2017-09-18T04:25:39.651Z,4.73
2017-09-18T04:28:07.098Z,4.60
2017-09-18T04:30:34.546Z,3.73
2017-09-18T04:33:02.019Z,4.17
2017-09-18T04:35:29.471Z,4.57
2017-09-18T04:37:56.922Z,4.10
2017-09-18T04:40:24.403Z,4.40
2017-09-18T04:42:51.858Z,4.57
2017-09-18T04:45:19.319Z,4.63
2017-09-18T04:47:46.791Z,4.93
2017-09-18T04:50:14.239Z,4.50
2017-09-18T04:52:41.690Z,4.60
2017-09-18T04:55:09.162Z,4.37
2017-09-18T04:57:36.610Z,4.60
2017-09-18T05:00:04.064Z,4.03
2017-09-18T05:02:31.535Z,5.90
2017-09-18T05:04:59.003Z,7.07
2017-09-18T05:07:26.455Z,6.53
2017-09-18T05:09:53.930Z,6.20
2017-09-18T05:12:21.383Z,6.40
2017-09-18T05:14:48.834Z,6.27
2017-09-18T05:17:16.312Z,5.80
2017-09-18T05:19:43.775Z,6.60
2017-09-18T05:22:11.230Z,4.80
2017-09-18T05:24:38.706Z,4.90
2017-09-18T05:27:06.167Z,4.47
2017-09-18T05:29:33.626Z,3.90
2017-09-18T05:32:01.105Z,4.63
2017-09-18T05:34:28.550Z,4.00
2017-09-18T05:36:55.998Z,4.50
2017-09-18T05:39:23.480Z,4.00
2017-09-18T05:41:50.933Z,3.83
2017-09-18T05:44:18.386Z,4.00
2017-09-18T05:46:45.862Z,5.03
2017-09-18T05:49:13.379Z,4.20
2017-09-18T05:51:40.841Z,4.97
2017-09-18T05:54:08.314Z,4.50
2017-09-18T05:56:35.769Z,5.60
2017-09-18T05:59:03.214Z,4.60
2017-09-18T06:01:30.695Z,5.47
2017-09-18T06:03:58.151Z,5.00
2017-09-18T06:06:25.631Z,4.83
2017-09-18T06:08:53.093Z,4.87
2017-09-18T06:11:20.547Z,5.13
2017-09-18T06:13:48.099Z,4.97
2017-09-18T06:16:15.554Z,5.43
2017-09-18T06:18:43.018Z,6.03
2017-09-18T06:21:10.494Z,5.13
2017-09-18T06:23:37.952Z,5.00
2017-09-18T06:26:05.411Z,5.50
2017-09-18T06:28:32.890Z,5.73
2017-09-18T06:31:00.363Z,5.90
2017-09-18T06:33:27.815Z,5.20
2017-09-18T06:35:55.303Z,5.00
2017-09-18T06:38:22.754Z,5.00
2017-09-18T06:40:50.210Z,5.50
2017-09-18T06:43:17.691Z,6.00
2017-09-18T06:45:45.146Z,5.70
2017-09-18T06:48:12.599Z,6.13
2017-09-18T06:50:40.090Z,5.70
2017-09-18T06:53:07.544Z,5.80
2017-09-18T06:55:35.022Z,5.50
2017-09-18T06:58:02.494Z,5.90
2017-09-18T07:00:29.951Z,5.30
2017-09-18T07:02:57.431Z,5.70
2017-09-18T07:05:24.899Z,5.60
2017-09-18T07:07:52.351Z,5.47
2017-09-18T07:10:19.827Z,5.37
2017-09-18T07:12:47.276Z,5.67
2017-09-18T07:15:14.738Z,6.23
2017-09-18T07:17:42.214Z,5.87
2017-09-18T07:20:09.687Z,5.73
2017-09-18T07:22:37.151Z,5.67
2017-09-18T07:25:04.645Z,5.20
2017-09-18T07:27:32.095Z,5.60
2017-09-18T07:29:59.574Z,5.90
2017-09-18T07:32:27.050Z,5.37
2017-09-18T07:34:54.501Z,5.10
2017-09-18T07:37:21.955Z,5.50
2017-09-18T07:39:49.437Z,4.80
2017-09-18T07:42:16.891Z,5.43
2017-09-18T07:44:44.347Z,5.33
2017-09-18T07:47:11.847Z,6.20
2017-09-18T07:49:39.303Z,5.73
2017-09-18T07:52:06.758Z,5.67
2017-09-18T07:54:34.232Z,5.70
2017-09-18T07:57:01.683Z,4.50
2017-09-18T07:59:29.143Z,6.50
2017-09-18T08:01:56.623Z,5.23
2017-09-18T08:04:24.079Z,5.40
2017-09-18T08:06:51.531Z,5.57
2017-09-18T08:09:19.007Z,5.27
2017-09-18T08:11:46.462Z,6.30
2017-09-18T08:14:13.914Z,5.63
2017-09-18T08:16:41.390Z,6.23
2017-09-18T08:19:08.841Z,6.00
2017-09-18T08:21:36.294Z,5.20
2017-09-18T08:24:03.772Z,5.30
2017-09-18T08:26:31.222Z,5.80
2017-09-18T08:28:58.683Z,5.37
2017-09-18T08:31:26.158Z,6.70
2017-09-18T08:33:53.618Z,6.37
2017-09-18T08:36:21.071Z,5.60
2017-09-18T08:38:48.550Z,6.23
2017-09-18T08:41:16.006Z,5.27
2017-09-18T08:43:43.458Z,6.60
2017-09-18T08:46:10.946Z,5.67
2017-09-18T08:48:38.405Z,6.20
2017-09-18T08:51:05.878Z,5.30
2017-09-18T08:53:33.354Z,5.67
2017-09-18T08:56:00.814Z,4.97
2017-09-18T08:58:28.266Z,5.63
2017-09-18T09:00:55.742Z,5.40
2017-09-18T09:03:23.198Z,5.20
2017-09-18T09:05:50.646Z,5.07
2017-09-18T09:08:18.117Z,5.37
2017-09-18T09:10:45.576Z,5.57
2017-09-18T09:13:13.026Z,5.03
2017-09-18T09:15:40.502Z,4.87
2017-09-18T09:18:07.918Z,5.23
2017-09-18T09:20:35.397Z,4.93
2017-09-18T09:23:02.874Z,5.33
2017-09-18T09:25:30.322Z,5.13
2017-09-18T09:27:57.762Z,5.20
2017-09-18T09:30:25.234Z,4.27
2017-09-18T09:32:52.683Z,4.20
2017-09-18T09:35:20.131Z,4.43
2017-09-18T09:37:47.611Z,5.07
2017-09-18T09:40:15.061Z,5.60
2017-09-18T09:42:42.518Z,5.60
2017-09-18T09:45:10.008Z,5.77
2017-09-18T09:47:37.463Z,6.30
2017-09-18T09:50:04.914Z,6.27
2017-09-18T09:52:32.385Z,5.77
2017-09-18T09:54:59.839Z,4.43
2017-09-18T09:57:27.294Z,3.83
2017-09-18T09:59:54.767Z,4.30
2017-09-18T10:02:22.221Z,4.10
2017-09-18T10:04:49.684Z,3.90
2017-09-18T10:07:17.159Z,4.03
2017-09-18T10:09:44.614Z,4.50
2017-09-18T10:12:12.058Z,4.70
2017-09-18T10:14:39.534Z,3.90
2017-09-18T10:17:06.991Z,4.40
2017-09-18T10:19:34.441Z,4.17
2017-09-18T10:22:01.918Z,4.33
2017-09-18T10:24:29.370Z,4.20
2017-09-18T10:26:56.819Z,4.13
2017-09-18T10:29:24.294Z,4.33
2017-09-18T10:31:51.743Z,4.23
2017-09-18T10:34:19.189Z,3.90
2017-09-18T10:36:46.663Z,4.03
2017-09-18T10:39:14.122Z,4.53
2017-09-18T10:41:41.571Z,4.50
2017-09-18T10:44:09.042Z,4.20
2017-09-18T10:46:36.490Z,3.67
2017-09-18T10:49:03.943Z,3.77
2017-09-18T10:51:31.419Z,3.60
2017-09-18T10:53:58.862Z,3.60
2017-09-18T10:56:26.307Z,3.30
2017-09-18T10:58:53.796Z,3.43
2017-09-18T11:01:21.263Z,3.43
2017-09-18T11:03:48.714Z,3.13
2017-09-18T11:06:16.187Z,3.50
2017-09-18T11:08:43.645Z,3.60
2017-09-18T11:11:11.095Z,3.50
2017-09-18T11:13:38.570Z,3.50
2017-09-18T11:16:06.020Z,3.77
2017-09-18T11:18:33.470Z,3.60
2017-09-18T11:21:00.942Z,3.60
2017-09-18T11:23:28.397Z,3.73
2017-09-18T11:25:55.850Z,3.50
2017-09-18T11:28:23.482Z,3.37
2017-09-18T11:30:50.930Z,4.10
2017-09-18T11:33:18.395Z,3.70
2017-09-18T11:35:45.870Z,3.50
2017-09-18T11:38:13.322Z,3.80
2017-09-18T11:40:40.771Z,3.77
2017-09-18T11:43:08.251Z,3.80
2017-09-18T11:45:35.699Z,3.43
2017-09-18T11:48:03.150Z,3.40
2017-09-18T11:50:30.618Z,3.60
2017-09-18T11:52:58.071Z,3.60
2017-09-18T11:55:25.518Z,3.33
2017-09-18T11:57:53.000Z,3.50
2017-09-18T12:00:20.450Z,3.43
2017-09-18T12:02:47.903Z,3.33
2017-09-18T12:05:15.374Z,3.10
2017-09-18T12:07:42.822Z,3.27
2017-09-18T12:10:10.274Z,3.27
2017-09-18T12:12:37.746Z,3.20
2017-09-18T12:15:05.198Z,3.20
2017-09-18T12:17:32.649Z,3.33
2017-09-18T12:20:00.119Z,3.50
2017-09-18T12:22:27.569Z,3.40
2017-09-18T12:24:55.011Z,3.20
2017-09-18T12:27:22.474Z,3.47
2017-09-18T12:29:49.927Z,3.50
2017-09-18T12:32:17.380Z,3.53
2017-09-18T12:34:44.854Z,3.30
2017-09-18T12:37:12.303Z,3.20
2017-09-18T12:39:39.750Z,3.10
2017-09-18T12:42:07.221Z,2.97
2017-09-18T12:44:34.670Z,3.00
2017-09-18T12:47:02.134Z,3.60
2017-09-18T12:49:29.598Z,3.30
2017-09-18T12:51:57.050Z,3.20
2017-09-18T12:54:24.522Z,3.13
2017-09-18T12:56:51.978Z,3.00
2017-09-18T12:59:19.431Z,2.90
2017-09-18T13:01:46.910Z,3.17
2017-09-18T13:04:14.364Z,2.90
2017-09-18T13:06:41.821Z,2.57
2017-09-18T13:09:09.322Z,2.80
2017-09-18T13:11:36.777Z,2.63
2017-09-18T13:14:04.226Z,3.30
2017-09-18T13:16:31.710Z,3.00
2017-09-18T13:18:59.158Z,2.80
2017-09-18T13:21:26.614Z,3.23
2017-09-18T13:23:54.090Z,3.47
2017-09-18T13:26:21.542Z,3.10
2017-09-18T13:28:49.037Z,3.17
2017-09-18T13:31:16.526Z,3.00
2017-09-18T13:33:43.983Z,3.10
2017-09-18T13:36:11.455Z,3.13
2017-09-18T13:38:38.926Z,3.10
2017-09-18T13:41:06.383Z,2.70
2017-09-18T13:43:33.842Z,3.13
2017-09-18T13:46:01.314Z,3.17
2017-09-18T13:48:28.782Z,2.87
2017-09-18T13:50:56.230Z,2.97
2017-09-18T13:53:23.702Z,2.70
2017-09-18T13:55:51.149Z,3.17
2017-09-18T13:58:18.599Z,2.87
2017-09-18T14:00:46.078Z,2.90
2017-09-18T14:03:13.531Z,3.90
2017-09-18T14:05:40.983Z,3.07
2017-09-18T14:08:08.457Z,3.70
2017-09-18T14:10:35.906Z,2.90
2017-09-18T14:13:03.373Z,3.13
2017-09-18T14:15:30.825Z,3.10
2017-09-18T14:17:58.343Z,2.80
2017-09-18T14:20:26.674Z,2.83
2017-09-18T14:22:54.127Z,3.30
2017-09-18T14:25:21.573Z,3.20
2017-09-18T14:27:49.048Z,3.57
2017-09-18T14:30:16.502Z,3.47
2017-09-18T14:32:43.955Z,3.90
2017-09-18T14:35:11.426Z,3.47
2017-09-18T14:37:38.870Z,2.73
2017-09-18T14:40:06.318Z,2.97
2017-09-18T14:42:33.794Z,2.90
2017-09-18T14:45:01.277Z,2.90
2017-09-18T14:47:28.744Z,3.63
2017-09-18T14:49:56.223Z,3.93
2017-09-18T14:52:23.674Z,3.33
2017-09-18T14:54:51.123Z,3.70
2017-09-18T14:57:18.598Z,3.87
2017-09-18T14:59:46.042Z,2.77
2017-09-18T15:02:13.495Z,3.00
2017-09-18T15:04:40.978Z,3.37
2017-09-18T15:07:08.426Z,2.80
2017-09-18T15:09:35.870Z,2.87
2017-09-18T15:12:03.368Z,3.13
2017-09-18T15:14:30.819Z,2.67
2017-09-18T15:16:58.270Z,3.00
2017-09-18T15:19:25.750Z,2.63
2017-09-18T15:21:53.219Z,2.83
2017-09-18T15:24:20.688Z,2.97
2017-09-18T15:26:48.230Z,3.10
2017-09-18T15:29:15.687Z,3.13
2017-09-18T15:31:43.147Z,4.30
2017-09-18T15:34:10.622Z,3.97
2017-09-18T15:36:38.077Z,3.90
2017-09-18T15:39:05.530Z,4.13
2017-09-18T15:41:33.018Z,5.20
2017-09-18T15:44:00.470Z,5.00
2017-09-18T15:46:27.947Z,3.13
2017-09-18T15:48:55.443Z,3.33
2017-09-18T15:51:22.896Z,3.80
2017-09-18T15:53:50.385Z,3.47
2017-09-18T15:56:17.869Z,3.37
2017-09-18T15:58:45.366Z,3.00
2017-09-18T16:01:12.968Z,3.70
2017-09-18T16:03:40.538Z,3.50
2017-09-18T16:06:07.986Z,4.10
2017-09-18T16:08:35.443Z,4.10
2017-09-18T16:11:02.922Z,3.80
2017-09-18T16:13:30.379Z,3.40
2017-09-18T16:15:57.827Z,3.83
2017-09-18T16:18:25.298Z,3.27
2017-09-18T16:20:52.747Z,3.30
2017-09-18T16:23:20.198Z,3.87
2017-09-18T16:25:47.682Z,3.80
2017-09-18T16:28:15.135Z,3.57
2017-09-18T16:30:42.587Z,4.23
2017-09-18T16:33:10.062Z,3.70
2017-09-18T16:35:37.510Z,4.97
2017-09-18T16:38:04.970Z,3.67
2017-09-18T16:40:32.466Z,4.10
2017-09-18T16:42:59.924Z,4.00
2017-09-18T16:45:27.376Z,3.77
2017-09-18T16:47:54.851Z,3.60
2017-09-18T16:50:22.311Z,4.13
2017-09-18T16:52:49.798Z,3.33
2017-09-18T16:55:17.274Z,3.83
2017-09-18T16:57:44.723Z,3.63
2017-09-18T17:00:12.206Z,3.67
2017-09-18T17:02:39.684Z,3.50
2017-09-18T17:05:07.187Z,4.37
2017-09-18T17:07:34.653Z,3.93
2017-09-18T17:10:02.126Z,4.60
2017-09-18T17:12:29.579Z,4.50
2017-09-18T17:14:57.070Z,3.67
2017-09-18T17:17:24.534Z,3.97
2017-09-18T17:19:51.987Z,4.70
2017-09-18T17:22:19.463Z,4.03
2017-09-18T17:24:46.919Z,4.43
2017-09-18T17:27:14.407Z,4.13
2017-09-18T17:29:41.858Z,4.53
2017-09-18T17:32:09.317Z,3.90
2017-09-18T17:34:36.791Z,4.20
2017-09-18T17:37:04.267Z,4.40
2017-09-18T17:39:31.773Z,5.07
2017-09-18T17:41:59.247Z,4.67
2017-09-18T17:44:26.726Z,4.53
2017-09-18T17:46:54.194Z,4.40
2017-09-18T17:49:21.671Z,4.33
2017-09-18T17:51:49.127Z,4.40
2017-09-18T17:54:16.599Z,4.43
2017-09-18T17:56:44.050Z,4.83
2017-09-18T17:59:11.498Z,4.77
2017-09-18T18:01:38.990Z,4.67
2017-09-18T18:04:06.439Z,4.97
2017-09-18T18:06:33.906Z,5.17
2017-09-18T18:09:01.382Z,4.90
2017-09-18T18:11:28.830Z,5.30
2017-09-18T18:13:56.302Z,4.87
2017-09-18T18:16:23.776Z,5.77
2017-09-18T18:18:51.238Z,5.73
2017-09-18T18:21:18.694Z,6.43
2017-09-18T18:23:46.171Z,7.40
2017-09-18T18:26:13.696Z,7.27
2017-09-18T18:28:41.185Z,8.20
2017-09-18T18:31:08.812Z,8.57
2017-09-18T18:33:36.479Z,8.70
2017-09-18T18:36:04.332Z,7.03
2017-09-18T18:38:32.497Z,6.93
2017-09-18T18:41:00.390Z,6.80
2017-09-18T18:43:28.122Z,6.50
2017-09-18T18:45:56.093Z,7.10
2017-09-18T18:48:24.459Z,7.20
2017-09-18T18:50:52.742Z,6.10
2017-09-18T18:53:21.295Z,7.13
2017-09-18T18:55:49.737Z,8.30
2017-09-18T18:58:18.352Z,8.33
2017-09-18T19:00:46.928Z,9.23
2017-09-18T19:03:15.475Z,9.10
2017-09-18T19:05:43.923Z,8.00
2017-09-18T19:08:12.459Z,9.70
2017-09-18T19:10:40.930Z,10.30
2017-09-18T19:13:09.656Z,11.10
2017-09-18T19:15:38.132Z,10.40
2017-09-18T19:18:06.599Z,10.13
2017-09-18T19:20:35.196Z,9.83
2017-09-18T19:23:09.016Z,9.40
2017-09-18T19:25:37.750Z,8.33
2017-09-18T19:28:06.590Z,8.03
2017-09-18T19:30:35.225Z,8.23
2017-09-18T19:33:04.902Z,8.90
2017-09-18T19:35:33.351Z,7.83
2017-09-18T19:38:07.522Z,8.40
2017-09-18T19:40:36.006Z,9.10
2017-09-18T19:43:04.489Z,9.30
2017-09-18T19:45:33.328Z,7.17
2017-09-18T19:48:03.533Z,8.83
2017-09-18T19:50:33.147Z,8.30
2017-09-18T19:53:01.932Z,9.77
2017-09-18T19:55:38.642Z,8.73
2017-09-18T19:58:07.222Z,9.33
2017-09-18T20:00:35.915Z,11.27
2017-09-18T20:03:11.289Z,13.53
2017-09-18T20:05:42.693Z,12.60
2017-09-18T20:08:12.651Z,10.10
2017-09-18T20:10:46.194Z,9.40
2017-09-18T20:13:15.445Z,10.17
2017-09-18T20:15:45.586Z,10.10
2017-09-18T20:18:18.395Z,9.50
2017-09-18T20:20:50.488Z,9.17
2017-09-18T20:23:18.896Z,10.27
2017-09-18T20:25:49.947Z,10.83
2017-09-18T20:28:18.151Z,9.40
2017-09-18T20:30:46.974Z,9.40
2017-09-18T20:33:14.577Z,9.10
2017-09-18T20:35:42.067Z,8.83
2017-09-18T20:38:10.263Z,9.47
2017-09-18T20:40:39.573Z,9.43
2017-09-18T20:43:07.059Z,9.17
2017-09-18T20:45:34.847Z,9.00
2017-09-18T20:48:02.355Z,9.70
2017-09-18T20:50:30.758Z,8.67
2017-09-18T20:52:58.294Z,8.27
2017-09-18T20:55:26.502Z,9.87
2017-09-18T20:57:53.975Z,8.10
2017-09-18T21:00:21.470Z,9.00
2017-09-18T21:02:48.940Z,7.63
2017-09-18T21:05:16.398Z,8.57
2017-09-18T21:07:43.880Z,8.23
2017-09-18T21:10:11.334Z,9.30
2017-09-18T21:12:38.785Z,9.97
2017-09-18T21:15:06.263Z,9.73
2017-09-18T21:17:33.717Z,9.43
2017-09-18T21:20:01.179Z,9.60
2017-09-18T21:22:28.662Z,9.80
2017-09-18T21:24:56.126Z,8.93
2017-09-18T21:27:23.586Z,8.80
2017-09-18T21:29:51.068Z,10.43
2017-09-18T21:32:18.528Z,10.00
2017-09-18T21:34:45.982Z,9.43
2017-09-18T21:37:13.466Z,9.57
2017-09-18T21:39:40.918Z,10.00
2017-09-18T21:42:08.370Z,9.90
2017-09-18T21:44:35.847Z,9.50
2017-09-18T21:47:03.310Z,10.33
2017-09-18T21:49:30.770Z,10.87
2017-09-18T21:51:58.251Z,12.70
2017-09-18T21:54:25.711Z,12.17
2017-09-18T21:56:53.166Z,13.13
2017-09-18T21:59:20.650Z,10.93
2017-09-18T22:01:48.107Z,10.90
2017-09-18T22:04:15.579Z,11.23
2017-09-18T22:06:43.062Z,10.53
2017-09-18T22:09:10.523Z,12.80
2017-09-18T22:11:37.994Z,12.30
2017-09-18T22:14:05.478Z,13.67
2017-09-18T22:16:32.899Z,14.00
2017-09-18T22:19:00.391Z,15.07
2017-09-18T22:21:27.870Z,13.77
2017-09-18T22:23:55.326Z,12.93
2017-09-18T22:26:22.827Z,12.13
2017-09-18T22:28:50.288Z,10.20
2017-09-18T22:31:17.739Z,9.73
2017-09-18T22:33:45.218Z,8.03
2017-09-18T22:36:12.673Z,7.23
2017-09-18T22:38:40.131Z,7.10
2017-09-18T22:41:07.610Z,7.37
2017-09-18T22:43:35.062Z,6.90
2017-09-18T22:46:02.516Z,7.77
2017-09-18T22:48:29.994Z,7.80
2017-09-18T22:50:57.451Z,8.00
2017-09-18T22:53:24.902Z,7.90
2017-09-18T22:55:52.381Z,7.77
2017-09-18T22:58:19.834Z,8.00
2017-09-18T23:00:47.287Z,8.00
2017-09-18T23:03:14.766Z,8.03
2017-09-18T23:05:42.227Z,8.80
2017-09-18T23:08:09.684Z,8.30
2017-09-18T23:10:37.167Z,8.10
2017-09-18T23:13:04.626Z,8.37
2017-09-18T23:15:32.074Z,7.63
2017-09-18T23:17:59.554Z,8.30
2017-09-18T23:20:27.010Z,7.97
2017-09-18T23:22:54.467Z,7.70
2017-09-18T23:25:21.946Z,7.87
2017-09-18T23:27:49.394Z,7.20
2017-09-18T23:30:16.845Z,7.20
2017-09-18T23:32:44.318Z,6.97
2017-09-18T23:35:11.783Z,7.80
2017-09-18T23:37:39.234Z,7.40
2017-09-18T23:40:06.723Z,8.70
2017-09-18T23:42:34.182Z,7.83
2017-09-18T23:45:01.634Z,7.17
2017-09-18T23:47:29.115Z,7.30
2017-09-18T23:49:56.570Z,8.40
2017-09-18T23:52:24.022Z,7.77
2017-09-18T23:54:51.506Z,8.60
2017-09-18T23:57:18.967Z,8.03
2017-09-18T23:59:46.418Z,8.07
